sensor_id;sensor_type;location;lat;lon;timestamp;P1;durP1;ratioP1;P2;durP2;ratioP2
47129;SDS011;64709;48.096;11.524;2022-11-13T00:00:52;12.75;;;7.35;;
47129;SDS011;64709;48.096;11.524;2022-11-13T00:03:18;14.55;;;9.30;;
47129;SDS011;64709;48.096;11.524;2022-11-13T00:05:43;16.13;;;9.70;;
47129;SDS011;64709;48.096;11.524;2022-11-13T00:08:09;13.65;;;8.63;;
47129;SDS011;64709;48.096;11.524;2022-11-13T00:10:34;15.35;;;9.52;;
47129;SDS011;64709;48.096;11.524;2022-11-13T00:13:00;16.83;;;9.48;;
47129;SDS011;64709;48.096;11.524;2022-11-13T00:15:25;11.43;;;7.68;;
47129;SDS011;64709;48.096;11.524;2022-11-13T00:17:50;14.38;;;8.65;;
47129;SDS011;64709;48.096;11.524;2022-11-13T00:20:16;10.07;;;7.28;;
47129;SDS011;64709;48.096;11.524;2022-11-13T00:22:42;12.65;;;9.55;;
47129;SDS011;64709;48.096;11.524;2022-11-13T00:25:07;14.18;;;9.38;;
47129;SDS011;64709;48.096;11.524;2022-11-13T00:27:33;14.57;;;10.10;;
47129;SDS011;64709;48.096;11.524;2022-11-13T00:29:58;13.25;;;9.73;;
47129;SDS011;64709;48.096;11.524;2022-11-13T00:32:24;14.48;;;10.05;;
47129;SDS011;64709;48.096;11.524;2022-11-13T00:34:50;11.00;;;8.32;;
47129;SDS011;64709;48.096;11.524;2022-11-13T00:37:16;12.63;;;8.32;;
47129;SDS011;64709;48.096;11.524;2022-11-13T00:39:41;12.73;;;8.40;;
47129;SDS011;64709;48.096;11.524;2022-11-13T00:42:07;11.30;;;8.68;;
47129;SDS011;64709;48.096;11.524;2022-11-13T00:44:32;12.27;;;8.45;;
47129;SDS011;64709;48.096;11.524;2022-11-13T00:46:57;11.55;;;8.13;;
47129;SDS011;64709;48.096;11.524;2022-11-13T00:49:22;13.75;;;8.90;;
47129;SDS011;64709;48.096;11.524;2022-11-13T00:51:48;13.88;;;9.40;;
47129;SDS011;64709;48.096;11.524;2022-11-13T00:54:13;13.13;;;9.10;;
47129;SDS011;64709;48.096;11.524;2022-11-13T00:56:38;10.68;;;7.38;;
47129;SDS011;64709;48.096;11.524;2022-11-13T00:59:04;13.65;;;8.75;;
47129;SDS011;64709;48.096;11.524;2022-11-13T01:01:29;12.20;;;8.05;;
47129;SDS011;64709;48.096;11.524;2022-11-13T01:03:54;14.93;;;9.13;;
47129;SDS011;64709;48.096;11.524;2022-11-13T01:06:22;10.30;;;7.80;;
47129;SDS011;64709;48.096;11.524;2022-11-13T01:08:49;10.40;;;7.82;;
47129;SDS011;64709;48.096;11.524;2022-11-13T01:11:15;9.45;;;7.40;;
47129;SDS011;64709;48.096;11.524;2022-11-13T01:13:44;9.38;;;6.72;;
47129;SDS011;64709;48.096;11.524;2022-11-13T01:16:12;10.80;;;7.75;;
47129;SDS011;64709;48.096;11.524;2022-11-13T01:18:39;9.27;;;6.53;;
47129;SDS011;64709;48.096;11.524;2022-11-13T01:21:06;10.82;;;7.00;;
47129;SDS011;64709;48.096;11.524;2022-11-13T01:23:36;11.15;;;7.95;;
47129;SDS011;64709;48.096;11.524;2022-11-13T01:26:15;10.85;;;7.95;;
47129;SDS011;64709;48.096;11.524;2022-11-13T01:28:49;12.80;;;8.25;;
47129;SDS011;64709;48.096;11.524;2022-11-13T01:31:16;10.27;;;7.32;;
47129;SDS011;64709;48.096;11.524;2022-11-13T01:33:44;9.10;;;6.70;;
47129;SDS011;64709;48.096;11.524;2022-11-13T01:36:12;8.35;;;6.68;;
47129;SDS011;64709;48.096;11.524;2022-11-13T01:38:39;8.57;;;6.65;;
47129;SDS011;64709;48.096;11.524;2022-11-13T01:41:05;10.85;;;7.57;;
47129;SDS011;64709;48.096;11.524;2022-11-13T01:43:33;9.52;;;7.22;;
47129;SDS011;64709;48.096;11.524;2022-11-13T01:46:04;12.75;;;7.15;;
47129;SDS011;64709;48.096;11.524;2022-11-13T01:48:39;15.48;;;8.07;;
47129;SDS011;64709;48.096;11.524;2022-11-13T01:51:12;8.05;;;5.90;;
47129;SDS011;64709;48.096;11.524;2022-11-13T01:53:41;10.98;;;7.30;;
47129;SDS011;64709;48.096;11.524;2022-11-13T01:56:09;9.90;;;7.50;;
47129;SDS011;64709;48.096;11.524;2022-11-13T01:58:36;9.88;;;7.30;;
47129;SDS011;64709;48.096;11.524;2022-11-13T02:01:03;10.20;;;7.18;;
47129;SDS011;64709;48.096;11.524;2022-11-13T02:03:28;9.02;;;6.93;;
47129;SDS011;64709;48.096;11.524;2022-11-13T02:05:54;9.00;;;7.05;;
47129;SDS011;64709;48.096;11.524;2022-11-13T02:08:20;8.35;;;6.75;;
47129;SDS011;64709;48.096;11.524;2022-11-13T02:10:45;8.05;;;5.97;;
47129;SDS011;64709;48.096;11.524;2022-11-13T02:13:12;11.25;;;7.13;;
47129;SDS011;64709;48.096;11.524;2022-11-13T02:15:39;8.73;;;6.93;;
47129;SDS011;64709;48.096;11.524;2022-11-13T02:18:06;9.43;;;7.15;;
47129;SDS011;64709;48.096;11.524;2022-11-13T02:23:30;8.65;;;7.32;;
47129;SDS011;64709;48.096;11.524;2022-11-13T02:26:05;7.65;;;5.72;;
47129;SDS011;64709;48.096;11.524;2022-11-13T02:28:33;7.75;;;6.32;;
47129;SDS011;64709;48.096;11.524;2022-11-13T02:31:05;11.20;;;7.18;;
47129;SDS011;64709;48.096;11.524;2022-11-13T02:33:32;8.48;;;6.43;;
47129;SDS011;64709;48.096;11.524;2022-11-13T02:35:57;9.40;;;5.50;;
47129;SDS011;64709;48.096;11.524;2022-11-13T02:38:23;9.80;;;5.82;;
47129;SDS011;64709;48.096;11.524;2022-11-13T02:40:49;8.43;;;6.38;;
47129;SDS011;64709;48.096;11.524;2022-11-13T02:43:14;7.93;;;5.85;;
47129;SDS011;64709;48.096;11.524;2022-11-13T02:45:39;9.38;;;6.43;;
47129;SDS011;64709;48.096;11.524;2022-11-13T02:48:05;8.07;;;6.35;;
47129;SDS011;64709;48.096;11.524;2022-11-13T02:50:32;7.18;;;5.80;;
47129;SDS011;64709;48.096;11.524;2022-11-13T02:52:59;7.57;;;5.50;;
47129;SDS011;64709;48.096;11.524;2022-11-13T02:55:24;8.02;;;5.40;;
47129;SDS011;64709;48.096;11.524;2022-11-13T02:57:50;7.47;;;5.97;;
47129;SDS011;64709;48.096;11.524;2022-11-13T03:00:15;7.72;;;5.72;;
47129;SDS011;64709;48.096;11.524;2022-11-13T03:02:41;7.13;;;5.90;;
47129;SDS011;64709;48.096;11.524;2022-11-13T03:05:07;8.30;;;5.82;;
47129;SDS011;64709;48.096;11.524;2022-11-13T03:07:33;7.30;;;5.03;;
47129;SDS011;64709;48.096;11.524;2022-11-13T03:09:58;7.22;;;5.65;;
47129;SDS011;64709;48.096;11.524;2022-11-13T03:12:23;8.50;;;6.78;;
47129;SDS011;64709;48.096;11.524;2022-11-13T03:14:49;8.30;;;6.22;;
47129;SDS011;64709;48.096;11.524;2022-11-13T03:17:14;7.95;;;5.60;;
47129;SDS011;64709;48.096;11.524;2022-11-13T03:19:39;7.90;;;5.90;;
47129;SDS011;64709;48.096;11.524;2022-11-13T03:22:05;11.27;;;7.43;;
47129;SDS011;64709;48.096;11.524;2022-11-13T03:24:30;8.55;;;6.70;;
47129;SDS011;64709;48.096;11.524;2022-11-13T03:26:56;9.85;;;7.13;;
47129;SDS011;64709;48.096;11.524;2022-11-13T03:29:21;8.35;;;6.53;;
47129;SDS011;64709;48.096;11.524;2022-11-13T03:31:46;8.65;;;6.00;;
47129;SDS011;64709;48.096;11.524;2022-11-13T03:34:11;10.60;;;6.97;;
47129;SDS011;64709;48.096;11.524;2022-11-13T03:36:37;8.73;;;5.97;;
47129;SDS011;64709;48.096;11.524;2022-11-13T03:39:02;8.05;;;6.28;;
47129;SDS011;64709;48.096;11.524;2022-11-13T03:41:28;9.50;;;6.45;;
47129;SDS011;64709;48.096;11.524;2022-11-13T03:43:53;7.32;;;5.60;;
47129;SDS011;64709;48.096;11.524;2022-11-13T03:46:18;9.65;;;5.78;;
47129;SDS011;64709;48.096;11.524;2022-11-13T03:48:44;8.95;;;6.65;;
47129;SDS011;64709;48.096;11.524;2022-11-13T03:51:09;10.13;;;5.95;;
47129;SDS011;64709;48.096;11.524;2022-11-13T03:53:34;8.45;;;5.50;;
47129;SDS011;64709;48.096;11.524;2022-11-13T03:56:00;9.77;;;6.25;;
47129;SDS011;64709;48.096;11.524;2022-11-13T03:58:25;6.65;;;4.63;;
47129;SDS011;64709;48.096;11.524;2022-11-13T04:00:52;7.72;;;5.43;;
47129;SDS011;64709;48.096;11.524;2022-11-13T04:03:19;8.10;;;5.63;;
47129;SDS011;64709;48.096;11.524;2022-11-13T04:05:46;7.85;;;5.32;;
47129;SDS011;64709;48.096;11.524;2022-11-13T04:08:13;7.55;;;5.45;;
47129;SDS011;64709;48.096;11.524;2022-11-13T04:10:38;7.53;;;6.25;;
47129;SDS011;64709;48.096;11.524;2022-11-13T04:13:04;7.13;;;5.35;;
47129;SDS011;64709;48.096;11.524;2022-11-13T04:15:29;9.15;;;6.28;;
47129;SDS011;64709;48.096;11.524;2022-11-13T04:17:55;13.15;;;6.70;;
47129;SDS011;64709;48.096;11.524;2022-11-13T04:20:20;8.95;;;6.90;;
47129;SDS011;64709;48.096;11.524;2022-11-13T04:22:45;9.07;;;6.38;;
47129;SDS011;64709;48.096;11.524;2022-11-13T04:25:11;7.75;;;5.80;;
47129;SDS011;64709;48.096;11.524;2022-11-13T04:27:36;9.05;;;6.45;;
47129;SDS011;64709;48.096;11.524;2022-11-13T04:30:02;9.07;;;6.10;;
47129;SDS011;64709;48.096;11.524;2022-11-13T04:32:29;9.73;;;6.60;;
47129;SDS011;64709;48.096;11.524;2022-11-13T04:34:54;9.95;;;6.55;;
47129;SDS011;64709;48.096;11.524;2022-11-13T04:37:19;10.48;;;6.38;;
47129;SDS011;64709;48.096;11.524;2022-11-13T04:39:44;7.78;;;5.95;;
47129;SDS011;64709;48.096;11.524;2022-11-13T04:42:10;8.55;;;5.97;;
47129;SDS011;64709;48.096;11.524;2022-11-13T04:44:54;10.15;;;6.55;;
47129;SDS011;64709;48.096;11.524;2022-11-13T04:47:20;10.77;;;6.78;;
47129;SDS011;64709;48.096;11.524;2022-11-13T04:49:45;8.65;;;6.25;;
47129;SDS011;64709;48.096;11.524;2022-11-13T04:52:10;8.60;;;5.65;;
47129;SDS011;64709;48.096;11.524;2022-11-13T04:54:37;6.82;;;5.10;;
47129;SDS011;64709;48.096;11.524;2022-11-13T04:57:02;8.10;;;6.15;;
47129;SDS011;64709;48.096;11.524;2022-11-13T04:59:28;10.85;;;7.22;;
47129;SDS011;64709;48.096;11.524;2022-11-13T05:01:53;7.43;;;5.30;;
47129;SDS011;64709;48.096;11.524;2022-11-13T05:04:19;6.40;;;4.68;;
47129;SDS011;64709;48.096;11.524;2022-11-13T05:06:45;7.80;;;5.70;;
47129;SDS011;64709;48.096;11.524;2022-11-13T05:09:10;7.18;;;5.50;;
47129;SDS011;64709;48.096;11.524;2022-11-13T05:11:36;6.32;;;5.32;;
47129;SDS011;64709;48.096;11.524;2022-11-13T05:14:03;6.97;;;5.60;;
47129;SDS011;64709;48.096;11.524;2022-11-13T05:16:28;6.97;;;5.25;;
47129;SDS011;64709;48.096;11.524;2022-11-13T05:18:54;8.68;;;5.47;;
47129;SDS011;64709;48.096;11.524;2022-11-13T05:21:21;8.95;;;5.05;;
47129;SDS011;64709;48.096;11.524;2022-11-13T05:23:47;6.63;;;5.32;;
47129;SDS011;64709;48.096;11.524;2022-11-13T05:26:12;6.72;;;5.57;;
47129;SDS011;64709;48.096;11.524;2022-11-13T05:28:38;6.90;;;5.53;;
47129;SDS011;64709;48.096;11.524;2022-11-13T05:31:11;8.70;;;5.85;;
47129;SDS011;64709;48.096;11.524;2022-11-13T05:33:38;5.97;;;4.80;;
47129;SDS011;64709;48.096;11.524;2022-11-13T05:36:09;7.40;;;5.18;;
47129;SDS011;64709;48.096;11.524;2022-11-13T05:38:36;6.90;;;5.43;;
47129;SDS011;64709;48.096;11.524;2022-11-13T05:41:07;6.35;;;4.88;;
47129;SDS011;64709;48.096;11.524;2022-11-13T05:43:37;5.93;;;4.90;;
47129;SDS011;64709;48.096;11.524;2022-11-13T05:48:30;8.27;;;5.28;;
47129;SDS011;64709;48.096;11.524;2022-11-13T05:51:00;7.68;;;4.70;;
47129;SDS011;64709;48.096;11.524;2022-11-13T05:53:30;5.70;;;4.75;;
47129;SDS011;64709;48.096;11.524;2022-11-13T05:56:01;7.97;;;5.07;;
47129;SDS011;64709;48.096;11.524;2022-11-13T05:58:28;6.40;;;5.03;;
47129;SDS011;64709;48.096;11.524;2022-11-13T06:01:03;6.68;;;4.78;;
47129;SDS011;64709;48.096;11.524;2022-11-13T06:03:33;6.70;;;5.32;;
47129;SDS011;64709;48.096;11.524;2022-11-13T06:05:58;9.32;;;5.03;;
47129;SDS011;64709;48.096;11.524;2022-11-13T06:08:24;5.95;;;4.63;;
47129;SDS011;64709;48.096;11.524;2022-11-13T06:10:50;6.85;;;4.68;;
47129;SDS011;64709;48.096;11.524;2022-11-13T06:13:15;5.82;;;4.32;;
47129;SDS011;64709;48.096;11.524;2022-11-13T06:15:40;6.38;;;4.78;;
47129;SDS011;64709;48.096;11.524;2022-11-13T06:18:06;6.35;;;4.95;;
47129;SDS011;64709;48.096;11.524;2022-11-13T06:20:34;6.10;;;5.10;;
47129;SDS011;64709;48.096;11.524;2022-11-13T06:23:00;7.10;;;4.97;;
47129;SDS011;64709;48.096;11.524;2022-11-13T06:25:26;6.90;;;5.15;;
47129;SDS011;64709;48.096;11.524;2022-11-13T06:27:52;7.38;;;5.47;;
47129;SDS011;64709;48.096;11.524;2022-11-13T06:30:18;6.78;;;4.32;;
47129;SDS011;64709;48.096;11.524;2022-11-13T06:32:44;8.27;;;4.93;;
47129;SDS011;64709;48.096;11.524;2022-11-13T06:35:15;8.20;;;5.65;;
47129;SDS011;64709;48.096;11.524;2022-11-13T06:37:40;6.28;;;5.13;;
47129;SDS011;64709;48.096;11.524;2022-11-13T06:40:06;6.70;;;5.43;;
47129;SDS011;64709;48.096;11.524;2022-11-13T06:42:32;7.55;;;5.10;;
47129;SDS011;64709;48.096;11.524;2022-11-13T06:44:57;6.97;;;4.95;;
47129;SDS011;64709;48.096;11.524;2022-11-13T06:47:22;9.95;;;6.63;;
47129;SDS011;64709;48.096;11.524;2022-11-13T06:49:48;9.57;;;7.03;;
47129;SDS011;64709;48.096;11.524;2022-11-13T06:52:13;8.73;;;6.75;;
47129;SDS011;64709;48.096;11.524;2022-11-13T06:54:38;8.07;;;5.70;;
47129;SDS011;64709;48.096;11.524;2022-11-13T06:57:04;9.52;;;6.68;;
47129;SDS011;64709;48.096;11.524;2022-11-13T06:59:29;9.90;;;6.75;;
47129;SDS011;64709;48.096;11.524;2022-11-13T07:01:54;7.80;;;5.50;;
47129;SDS011;64709;48.096;11.524;2022-11-13T07:04:19;6.90;;;4.85;;
47129;SDS011;64709;48.096;11.524;2022-11-13T07:06:45;7.32;;;5.30;;
47129;SDS011;64709;48.096;11.524;2022-11-13T07:09:10;8.50;;;6.10;;
47129;SDS011;64709;48.096;11.524;2022-11-13T07:11:35;8.80;;;6.13;;
47129;SDS011;64709;48.096;11.524;2022-11-13T07:14:01;8.02;;;6.10;;
47129;SDS011;64709;48.096;11.524;2022-11-13T07:16:26;7.72;;;5.22;;
47129;SDS011;64709;48.096;11.524;2022-11-13T07:18:52;8.35;;;6.10;;
47129;SDS011;64709;48.096;11.524;2022-11-13T07:21:18;8.95;;;6.57;;
47129;SDS011;64709;48.096;11.524;2022-11-13T07:23:45;8.35;;;5.07;;
47129;SDS011;64709;48.096;11.524;2022-11-13T07:26:12;8.57;;;6.32;;
47129;SDS011;64709;48.096;11.524;2022-11-13T07:28:38;15.63;;;9.68;;
47129;SDS011;64709;48.096;11.524;2022-11-13T07:31:04;15.48;;;9.05;;
47129;SDS011;64709;48.096;11.524;2022-11-13T07:33:29;8.18;;;6.05;;
47129;SDS011;64709;48.096;11.524;2022-11-13T07:35:55;7.07;;;4.93;;
47129;SDS011;64709;48.096;11.524;2022-11-13T07:38:22;7.03;;;5.45;;
47129;SDS011;64709;48.096;11.524;2022-11-13T07:40:47;7.20;;;5.50;;
47129;SDS011;64709;48.096;11.524;2022-11-13T07:43:13;6.57;;;4.80;;
47129;SDS011;64709;48.096;11.524;2022-11-13T07:45:39;8.05;;;5.10;;
47129;SDS011;64709;48.096;11.524;2022-11-13T07:48:04;7.47;;;5.65;;
47129;SDS011;64709;48.096;11.524;2022-11-13T07:50:31;9.95;;;7.45;;
47129;SDS011;64709;48.096;11.524;2022-11-13T07:52:59;9.68;;;6.75;;
47129;SDS011;64709;48.096;11.524;2022-11-13T07:55:27;8.68;;;5.68;;
47129;SDS011;64709;48.096;11.524;2022-11-13T07:57:56;8.10;;;5.85;;
47129;SDS011;64709;48.096;11.524;2022-11-13T08:00:23;14.95;;;8.90;;
47129;SDS011;64709;48.096;11.524;2022-11-13T08:02:49;7.43;;;5.68;;
47129;SDS011;64709;48.096;11.524;2022-11-13T08:05:15;6.55;;;4.85;;
47129;SDS011;64709;48.096;11.524;2022-11-13T08:07:40;7.28;;;5.10;;
47129;SDS011;64709;48.096;11.524;2022-11-13T08:10:06;12.63;;;8.00;;
47129;SDS011;64709;48.096;11.524;2022-11-13T08:12:31;10.68;;;7.13;;
47129;SDS011;64709;48.096;11.524;2022-11-13T08:14:57;8.73;;;6.30;;
47129;SDS011;64709;48.096;11.524;2022-11-13T08:17:22;9.65;;;6.60;;
47129;SDS011;64709;48.096;11.524;2022-11-13T08:19:47;13.82;;;8.70;;
47129;SDS011;64709;48.096;11.524;2022-11-13T08:22:13;7.97;;;5.72;;
47129;SDS011;64709;48.096;11.524;2022-11-13T08:24:38;6.30;;;4.50;;
47129;SDS011;64709;48.096;11.524;2022-11-13T08:27:04;6.88;;;5.15;;
47129;SDS011;64709;48.096;11.524;2022-11-13T08:29:31;6.68;;;5.03;;
47129;SDS011;64709;48.096;11.524;2022-11-13T08:31:56;6.78;;;5.35;;
47129;SDS011;64709;48.096;11.524;2022-11-13T08:34:22;7.07;;;5.50;;
47129;SDS011;64709;48.096;11.524;2022-11-13T08:36:47;6.28;;;5.07;;
47129;SDS011;64709;48.096;11.524;2022-11-13T08:39:13;7.13;;;5.35;;
47129;SDS011;64709;48.096;11.524;2022-11-13T08:41:38;7.13;;;5.60;;
47129;SDS011;64709;48.096;11.524;2022-11-13T08:44:04;6.78;;;5.88;;
47129;SDS011;64709;48.096;11.524;2022-11-13T08:46:29;7.75;;;6.45;;
47129;SDS011;64709;48.096;11.524;2022-11-13T08:48:55;7.95;;;5.78;;
47129;SDS011;64709;48.096;11.524;2022-11-13T08:51:20;7.53;;;5.60;;
47129;SDS011;64709;48.096;11.524;2022-11-13T08:53:45;9.05;;;6.63;;
47129;SDS011;64709;48.096;11.524;2022-11-13T08:56:11;8.32;;;6.80;;
47129;SDS011;64709;48.096;11.524;2022-11-13T08:58:36;6.47;;;5.20;;
47129;SDS011;64709;48.096;11.524;2022-11-13T09:01:02;8.30;;;6.28;;
47129;SDS011;64709;48.096;11.524;2022-11-13T09:03:28;8.10;;;6.50;;
47129;SDS011;64709;48.096;11.524;2022-11-13T09:05:54;6.40;;;5.13;;
47129;SDS011;64709;48.096;11.524;2022-11-13T09:08:19;7.07;;;4.80;;
47129;SDS011;64709;48.096;11.524;2022-11-13T09:10:44;8.23;;;6.72;;
47129;SDS011;64709;48.096;11.524;2022-11-13T09:13:10;8.15;;;5.93;;
47129;SDS011;64709;48.096;11.524;2022-11-13T09:15:36;8.20;;;6.28;;
47129;SDS011;64709;48.096;11.524;2022-11-13T09:18:03;8.57;;;6.68;;
47129;SDS011;64709;48.096;11.524;2022-11-13T09:20:29;8.43;;;7.22;;
47129;SDS011;64709;48.096;11.524;2022-11-13T09:22:59;7.80;;;6.05;;
47129;SDS011;64709;48.096;11.524;2022-11-13T09:25:26;7.78;;;5.95;;
47129;SDS011;64709;48.096;11.524;2022-11-13T09:27:57;7.50;;;5.68;;
47129;SDS011;64709;48.096;11.524;2022-11-13T09:30:23;7.75;;;5.97;;
47129;SDS011;64709;48.096;11.524;2022-11-13T09:32:53;7.07;;;5.57;;
47129;SDS011;64709;48.096;11.524;2022-11-13T09:35:23;6.95;;;4.97;;
47129;SDS011;64709;48.096;11.524;2022-11-13T09:38:02;7.30;;;5.25;;
47129;SDS011;64709;48.096;11.524;2022-11-13T09:40:34;6.28;;;5.35;;
47129;SDS011;64709;48.096;11.524;2022-11-13T09:43:05;7.30;;;5.93;;
47129;SDS011;64709;48.096;11.524;2022-11-13T09:45:50;8.68;;;5.78;;
47129;SDS011;64709;48.096;11.524;2022-11-13T09:50:46;7.35;;;5.53;;
47129;SDS011;64709;48.096;11.524;2022-11-13T09:53:12;7.10;;;5.63;;
47129;SDS011;64709;48.096;11.524;2022-11-13T09:58:42;7.20;;;5.65;;
47129;SDS011;64709;48.096;11.524;2022-11-13T10:01:26;7.13;;;6.03;;
47129;SDS011;64709;48.096;11.524;2022-11-13T10:04:01;7.75;;;6.22;;
47129;SDS011;64709;48.096;11.524;2022-11-13T10:11:52;7.82;;;6.43;;
47129;SDS011;64709;48.096;11.524;2022-11-13T10:14:25;7.90;;;5.80;;
47129;SDS011;64709;48.096;11.524;2022-11-13T10:19:56;7.35;;;5.80;;
47129;SDS011;64709;48.096;11.524;2022-11-13T10:22:29;8.38;;;6.13;;
47129;SDS011;64709;48.096;11.524;2022-11-13T10:25:08;9.00;;;6.22;;
47129;SDS011;64709;48.096;11.524;2022-11-13T10:27:38;7.57;;;5.65;;
47129;SDS011;64709;48.096;11.524;2022-11-13T10:30:14;7.03;;;5.85;;
47129;SDS011;64709;48.096;11.524;2022-11-13T10:32:41;8.38;;;6.20;;
47129;SDS011;64709;48.096;11.524;2022-11-13T10:40:45;8.07;;;6.45;;
47129;SDS011;64709;48.096;11.524;2022-11-13T10:43:14;7.53;;;6.40;;
47129;SDS011;64709;48.096;11.524;2022-11-13T10:46:04;7.85;;;6.10;;
47129;SDS011;64709;48.096;11.524;2022-11-13T10:48:31;8.15;;;6.65;;
47129;SDS011;64709;48.096;11.524;2022-11-13T10:51:14;7.82;;;6.22;;
47129;SDS011;64709;48.096;11.524;2022-11-13T10:53:45;9.15;;;6.35;;
47129;SDS011;64709;48.096;11.524;2022-11-13T10:56:18;7.10;;;5.57;;
47129;SDS011;64709;48.096;11.524;2022-11-13T10:58:44;10.13;;;7.43;;
47129;SDS011;64709;48.096;11.524;2022-11-13T11:01:13;7.72;;;6.20;;
47129;SDS011;64709;48.096;11.524;2022-11-13T11:03:48;6.72;;;5.18;;
47129;SDS011;64709;48.096;11.524;2022-11-13T11:06:14;7.40;;;6.05;;
47129;SDS011;64709;48.096;11.524;2022-11-13T11:08:39;6.95;;;5.90;;
47129;SDS011;64709;48.096;11.524;2022-11-13T11:11:23;10.00;;;7.43;;
47129;SDS011;64709;48.096;11.524;2022-11-13T11:16:53;9.13;;;6.38;;
47129;SDS011;64709;48.096;11.524;2022-11-13T11:19:20;8.25;;;5.70;;
47129;SDS011;64709;48.096;11.524;2022-11-13T11:21:51;10.02;;;7.95;;
47129;SDS011;64709;48.096;11.524;2022-11-13T11:24:36;10.02;;;6.78;;
47129;SDS011;64709;48.096;11.524;2022-11-13T11:27:14;9.15;;;7.32;;
47129;SDS011;64709;48.096;11.524;2022-11-13T11:29:59;8.63;;;6.07;;
47129;SDS011;64709;48.096;11.524;2022-11-13T11:32:46;8.27;;;6.40;;
47129;SDS011;64709;48.096;11.524;2022-11-13T11:35:23;6.90;;;6.07;;
47129;SDS011;64709;48.096;11.524;2022-11-13T11:37:59;8.73;;;6.28;;
47129;SDS011;64709;48.096;11.524;2022-11-13T11:40:39;8.35;;;6.85;;
47129;SDS011;64709;48.096;11.524;2022-11-13T11:45:56;7.95;;;6.70;;
47129;SDS011;64709;48.096;11.524;2022-11-13T11:48:23;8.02;;;6.70;;
47129;SDS011;64709;48.096;11.524;2022-11-13T11:54:03;9.93;;;7.78;;
47129;SDS011;64709;48.096;11.524;2022-11-13T11:56:34;24.83;;;17.05;;
47129;SDS011;64709;48.096;11.524;2022-11-13T12:10:23;7.95;;;6.82;;
47129;SDS011;64709;48.096;11.524;2022-11-13T12:13:18;6.85;;;5.32;;
47129;SDS011;64709;48.096;11.524;2022-11-13T12:16:11;8.05;;;6.38;;
47129;SDS011;64709;48.096;11.524;2022-11-13T12:18:59;7.97;;;6.22;;
47129;SDS011;64709;48.096;11.524;2022-11-13T12:21:35;7.25;;;5.55;;
47129;SDS011;64709;48.096;11.524;2022-11-13T12:27:11;6.97;;;5.43;;
47129;SDS011;64709;48.096;11.524;2022-11-13T12:29:48;7.95;;;6.43;;
47129;SDS011;64709;48.096;11.524;2022-11-13T12:34:56;6.22;;;4.80;;
47129;SDS011;64709;48.096;11.524;2022-11-13T12:37:32;6.10;;;4.85;;
47129;SDS011;64709;48.096;11.524;2022-11-13T12:40:05;8.88;;;7.10;;
47129;SDS011;64709;48.096;11.524;2022-11-13T12:48:08;8.65;;;5.85;;
47129;SDS011;64709;48.096;11.524;2022-11-13T12:50:55;8.27;;;6.68;;
47129;SDS011;64709;48.096;11.524;2022-11-13T12:53:24;9.15;;;6.30;;
47129;SDS011;64709;48.096;11.524;2022-11-13T12:56:01;7.50;;;5.65;;
47129;SDS011;64709;48.096;11.524;2022-11-13T12:58:29;8.70;;;6.82;;
47129;SDS011;64709;48.096;11.524;2022-11-13T13:01:01;8.75;;;6.68;;
47129;SDS011;64709;48.096;11.524;2022-11-13T13:06:49;9.63;;;7.05;;
47129;SDS011;64709;48.096;11.524;2022-11-13T13:12:41;8.90;;;6.78;;
47129;SDS011;64709;48.096;11.524;2022-11-13T13:20:40;7.07;;;5.60;;
47129;SDS011;64709;48.096;11.524;2022-11-13T13:23:11;7.45;;;5.50;;
47129;SDS011;64709;48.096;11.524;2022-11-13T13:25:37;6.50;;;5.05;;
47129;SDS011;64709;48.096;11.524;2022-11-13T13:30:44;6.63;;;5.03;;
47129;SDS011;64709;48.096;11.524;2022-11-13T13:41:30;7.40;;;5.25;;
47129;SDS011;64709;48.096;11.524;2022-11-13T13:46:47;7.82;;;6.00;;
47129;SDS011;64709;48.096;11.524;2022-11-13T13:49:14;8.38;;;5.97;;
47129;SDS011;64709;48.096;11.524;2022-11-13T13:51:45;8.43;;;5.80;;
47129;SDS011;64709;48.096;11.524;2022-11-13T13:54:23;6.90;;;5.60;;
47129;SDS011;64709;48.096;11.524;2022-11-13T13:56:53;8.30;;;6.22;;
47129;SDS011;64709;48.096;11.524;2022-11-13T13:59:25;7.57;;;5.97;;
47129;SDS011;64709;48.096;11.524;2022-11-13T14:01:55;8.63;;;6.57;;
47129;SDS011;64709;48.096;11.524;2022-11-13T14:04:23;8.05;;;5.90;;
47129;SDS011;64709;48.096;11.524;2022-11-13T14:06:51;6.43;;;4.90;;
47129;SDS011;64709;48.096;11.524;2022-11-13T14:09:25;6.93;;;5.25;;
47129;SDS011;64709;48.096;11.524;2022-11-13T14:12:34;7.63;;;5.88;;
47129;SDS011;64709;48.096;11.524;2022-11-13T14:14:42;7.00;;;5.10;;
47129;SDS011;64709;48.096;11.524;2022-11-13T14:17:08;6.68;;;5.07;;
47129;SDS011;64709;48.096;11.524;2022-11-13T14:19:35;8.05;;;6.05;;
47129;SDS011;64709;48.096;11.524;2022-11-13T14:22:01;7.18;;;5.50;;
47129;SDS011;64709;48.096;11.524;2022-11-13T14:27:21;7.07;;;5.32;;
47129;SDS011;64709;48.096;11.524;2022-11-13T14:29:50;6.07;;;4.53;;
47129;SDS011;64709;48.096;11.524;2022-11-13T14:32:28;5.80;;;4.63;;
47129;SDS011;64709;48.096;11.524;2022-11-13T14:35:00;7.15;;;5.38;;
47129;SDS011;64709;48.096;11.524;2022-11-13T14:37:32;7.22;;;5.50;;
47129;SDS011;64709;48.096;11.524;2022-11-13T14:40:02;8.32;;;5.88;;
47129;SDS011;64709;48.096;11.524;2022-11-13T14:42:34;7.55;;;5.32;;
47129;SDS011;64709;48.096;11.524;2022-11-13T14:45:11;8.57;;;6.53;;
47129;SDS011;64709;48.096;11.524;2022-11-13T14:47:37;7.50;;;5.63;;
47129;SDS011;64709;48.096;11.524;2022-11-13T14:50:07;7.68;;;5.78;;
47129;SDS011;64709;48.096;11.524;2022-11-13T14:52:53;7.38;;;5.10;;
47129;SDS011;64709;48.096;11.524;2022-11-13T14:55:31;8.15;;;4.97;;
47129;SDS011;64709;48.096;11.524;2022-11-13T14:58:00;7.00;;;5.28;;
47129;SDS011;64709;48.096;11.524;2022-11-13T15:00:30;6.47;;;4.63;;
47129;SDS011;64709;48.096;11.524;2022-11-13T15:02:58;5.70;;;3.90;;
47129;SDS011;64709;48.096;11.524;2022-11-13T15:05:24;6.82;;;3.95;;
47129;SDS011;64709;48.096;11.524;2022-11-13T15:07:50;5.25;;;3.80;;
47129;SDS011;64709;48.096;11.524;2022-11-13T15:10:18;5.93;;;4.60;;
47129;SDS011;64709;48.096;11.524;2022-11-13T15:12:47;6.72;;;4.88;;
47129;SDS011;64709;48.096;11.524;2022-11-13T15:15:17;6.47;;;4.80;;
47129;SDS011;64709;48.096;11.524;2022-11-13T15:17:44;5.72;;;4.20;;
47129;SDS011;64709;48.096;11.524;2022-11-13T15:20:16;5.28;;;4.10;;
47129;SDS011;64709;48.096;11.524;2022-11-13T15:22:45;5.15;;;3.88;;
47129;SDS011;64709;48.096;11.524;2022-11-13T15:25:14;7.97;;;5.85;;
47129;SDS011;64709;48.096;11.524;2022-11-13T15:36:37;5.93;;;4.00;;
47129;SDS011;64709;48.096;11.524;2022-11-13T15:39:03;5.65;;;3.72;;
47129;SDS011;64709;48.096;11.524;2022-11-13T15:41:30;6.00;;;3.42;;
47129;SDS011;64709;48.096;11.524;2022-11-13T15:43:57;6.85;;;4.85;;
47129;SDS011;64709;48.096;11.524;2022-11-13T15:46:24;6.18;;;4.22;;
47129;SDS011;64709;48.096;11.524;2022-11-13T15:48:50;6.80;;;4.38;;
47129;SDS011;64709;48.096;11.524;2022-11-13T15:51:23;7.90;;;4.75;;
47129;SDS011;64709;48.096;11.524;2022-11-13T15:54:02;6.72;;;4.32;;
47129;SDS011;64709;48.096;11.524;2022-11-13T15:56:43;6.75;;;4.60;;
47129;SDS011;64709;48.096;11.524;2022-11-13T15:59:11;8.57;;;6.00;;
47129;SDS011;64709;48.096;11.524;2022-11-13T16:01:37;8.10;;;6.03;;
47129;SDS011;64709;48.096;11.524;2022-11-13T16:04:03;9.18;;;6.80;;
47129;SDS011;64709;48.096;11.524;2022-11-13T16:06:29;13.13;;;9.05;;
47129;SDS011;64709;48.096;11.524;2022-11-13T16:08:58;18.63;;;12.05;;
47129;SDS011;64709;48.096;11.524;2022-11-13T16:11:23;16.80;;;11.80;;